Turner's Corners, Ontario

9:32 PM EST on December 03, 2016 (GMT -0500)
JONES CREEK CANADA | | Change Station

Elev 610 ft 43.11 °N, 79.14 °W | Updated 4 seconds ago

Overcast
Overcast
37.6 °F
Feels Like 38 °F
N
0.9
Wind Variable Wind from North
Gusts 3.0 mph

Today
High -- | Low -- °F
--% Chance of Precip.
Yesterday
High -- | Low -- °F
Precip. -- in
Pressure 30.24 in
Visibility 15.0 miles
Clouds Overcast 4700 ft
Windchill 38 °F
Dew Point 33 °F
Humidity 84%
Rainfall 0.00 in
Snow Depth Not available.
7:31 AM 4:42 PM
Waxing Crescent, 19% visible
METAR CYSN 040200Z 29005KT 15SM OVC047 04/M00 A3022 RMK SC8 LAST STFD OBS/NEXT 041200 UTC SLP238
Pressure 30.24 in
Visibility 15.0 miles
Clouds Overcast 4700 ft
Windchill 38 °F
Dew Point 33 °F
Humidity 84%
Rainfall 0.00 in
Snow Depth Not available.
7:31 AM 4:42 PM
Waxing Crescent, 19% visible
METAR CYSN 040200Z 29005KT 15SM OVC047 04/M00 A3022 RMK SC8 LAST STFD OBS/NEXT 041200 UTC SLP238

10-Day Weather Forecast

Almanac

Astronomy

Dec. 03, 2016 Rise Set
Actual Time
Civil Twilight
Nautical Twilight
Astronomical Twilight
Moon
Length of Visible Light
Length of Day
Tomorrow will be .
, % of the Moon is Illuminated

Today's Extremes

Country Highs Country Lows

Community

WunderPhotos

Upload Photos

1,955,564 photos uploaded!

WunderBlog® & News

Nearby

Air Quality

  Air Quality AQ Index Pollutant
Not available.

Snow Depth

Station Depth Elevation

Earthquake Activity

City Distance Mag. Time & Date
Minimum magnitude displayed is 2.5.

Coastal Water Temperatures

Place Temperature

Stations

Nearby Weather Stations

Station Location Temp. Windchill Dew Point Humidity Wind Precip. Elev Updated Type
                   

Watches & Warnings

There are currently no watches in effect.